Terminal Aerodrome Forecast
Issued by NWS

Home | Current Version | Previous Version | Text Only | Print | Product List | Glossary On
Versions: 1 2 3 4 5 6 7 8 9 10 11 12 13 14 15 16 17
000
FTUS44 KBMX 252300
TAFANB
TAF
KANB 252339Z 2600/2624 24008G15KT P6SM BKN090 OVC110
     FM260100 23010KT 6SM SHRA VCTS SCT045CB BKN060 BKN110
     FM260230 29007KT P6SM SCT045 OVC060
      TEMPO 2605/2607 6SM SHRA BKN045 OVC070
     FM261200 28012G18KT P6SM OVC020
     FM262100 28007KT P6SM SKC=

USA.gov is the U.S. government's official web portal to all federal, state and local government web resources and services.